sensor_id;sensor_type;location;lat;lon;timestamp;P1;durP1;ratioP1;P2;durP2;ratioP2
3677;SDS011;1855;50.934;6.958;2023-03-31T00:01:59;2.30;;;1.20;;
3677;SDS011;1855;50.934;6.958;2023-03-31T00:04:26;4.53;;;1.38;;
3677;SDS011;1855;50.934;6.958;2023-03-31T00:06:56;2.83;;;1.30;;
3677;SDS011;1855;50.934;6.958;2023-03-31T00:09:22;4.57;;;1.40;;
3677;SDS011;1855;50.934;6.958;2023-03-31T00:11:50;2.92;;;1.60;;
3677;SDS011;1855;50.934;6.958;2023-03-31T00:14:18;2.80;;;1.50;;
3677;SDS011;1855;50.934;6.958;2023-03-31T00:16:46;3.25;;;1.33;;
3677;SDS011;1855;50.934;6.958;2023-03-31T00:19:13;4.15;;;1.77;;
3677;SDS011;1855;50.934;6.958;2023-03-31T00:21:44;4.97;;;1.70;;
3677;SDS011;1855;50.934;6.958;2023-03-31T00:24:11;3.63;;;1.70;;
3677;SDS011;1855;50.934;6.958;2023-03-31T00:26:39;6.20;;;1.77;;
3677;SDS011;1855;50.934;6.958;2023-03-31T00:29:07;4.80;;;1.70;;
3677;SDS011;1855;50.934;6.958;2023-03-31T00:31:36;4.32;;;1.95;;
3677;SDS011;1855;50.934;6.958;2023-03-31T00:34:04;3.90;;;1.42;;
3677;SDS011;1855;50.934;6.958;2023-03-31T00:36:32;5.00;;;1.80;;
3677;SDS011;1855;50.934;6.958;2023-03-31T00:39:01;6.85;;;1.90;;
3677;SDS011;1855;50.934;6.958;2023-03-31T00:41:29;4.28;;;1.98;;
3677;SDS011;1855;50.934;6.958;2023-03-31T00:44:00;3.85;;;1.52;;
3677;SDS011;1855;50.934;6.958;2023-03-31T00:46:32;5.32;;;1.88;;
3677;SDS011;1855;50.934;6.958;2023-03-31T00:49:05;5.80;;;1.90;;
3677;SDS011;1855;50.934;6.958;2023-03-31T00:51:40;5.07;;;1.88;;
3677;SDS011;1855;50.934;6.958;2023-03-31T00:54:08;4.40;;;1.70;;
3677;SDS011;1855;50.934;6.958;2023-03-31T00:56:36;5.10;;;2.20;;
3677;SDS011;1855;50.934;6.958;2023-03-31T00:59:06;5.47;;;1.70;;
3677;SDS011;1855;50.934;6.958;2023-03-31T01:01:37;5.40;;;1.70;;
3677;SDS011;1855;50.934;6.958;2023-03-31T01:04:08;5.85;;;1.75;;
3677;SDS011;1855;50.934;6.958;2023-03-31T01:06:37;5.07;;;1.90;;
3677;SDS011;1855;50.934;6.958;2023-03-31T01:09:11;4.95;;;1.88;;
3677;SDS011;1855;50.934;6.958;2023-03-31T01:11:40;5.80;;;2.00;;
3677;SDS011;1855;50.934;6.958;2023-03-31T01:14:10;3.60;;;1.75;;
3677;SDS011;1855;50.934;6.958;2023-03-31T01:16:37;4.40;;;2.00;;
3677;SDS011;1855;50.934;6.958;2023-03-31T01:19:04;5.43;;;2.00;;
3677;SDS011;1855;50.934;6.958;2023-03-31T01:27:45;6.03;;;1.80;;
3677;SDS011;1855;50.934;6.958;2023-03-31T01:33:32;8.00;;;2.10;;
3677;SDS011;1855;50.934;6.958;2023-03-31T01:39:39;5.75;;;1.90;;
3677;SDS011;1855;50.934;6.958;2023-03-31T01:42:21;5.17;;;1.80;;
3677;SDS011;1855;50.934;6.958;2023-03-31T01:44:56;4.95;;;1.40;;
3677;SDS011;1855;50.934;6.958;2023-03-31T01:47:32;5.43;;;2.00;;
3677;SDS011;1855;50.934;6.958;2023-03-31T01:50:05;5.50;;;1.95;;
3677;SDS011;1855;50.934;6.958;2023-03-31T01:52:37;5.20;;;1.90;;
3677;SDS011;1855;50.934;6.958;2023-03-31T01:55:11;5.15;;;1.60;;
3677;SDS011;1855;50.934;6.958;2023-03-31T01:57:42;6.18;;;1.90;;
3677;SDS011;1855;50.934;6.958;2023-03-31T02:00:13;5.05;;;2.00;;
3677;SDS011;1855;50.934;6.958;2023-03-31T02:02:43;5.50;;;2.50;;
3677;SDS011;1855;50.934;6.958;2023-03-31T02:05:12;5.33;;;2.50;;
3677;SDS011;1855;50.934;6.958;2023-03-31T02:07:44;6.32;;;2.00;;
3677;SDS011;1855;50.934;6.958;2023-03-31T02:10:15;6.28;;;2.28;;
3677;SDS011;1855;50.934;6.958;2023-03-31T02:12:43;7.00;;;2.38;;
3677;SDS011;1855;50.934;6.958;2023-03-31T02:15:12;6.60;;;2.20;;
3677;SDS011;1855;50.934;6.958;2023-03-31T02:17:42;6.47;;;2.20;;
3677;SDS011;1855;50.934;6.958;2023-03-31T02:20:14;7.47;;;2.33;;
3677;SDS011;1855;50.934;6.958;2023-03-31T02:22:44;5.65;;;2.55;;
3677;SDS011;1855;50.934;6.958;2023-03-31T02:25:16;6.90;;;2.50;;
3677;SDS011;1855;50.934;6.958;2023-03-31T02:27:48;8.80;;;3.27;;
3677;SDS011;1855;50.934;6.958;2023-03-31T02:30:19;7.70;;;3.05;;
3677;SDS011;1855;50.934;6.958;2023-03-31T02:32:47;9.70;;;3.10;;
3677;SDS011;1855;50.934;6.958;2023-03-31T02:35:15;6.85;;;3.55;;
3677;SDS011;1855;50.934;6.958;2023-03-31T02:37:45;6.55;;;3.20;;
3677;SDS011;1855;50.934;6.958;2023-03-31T02:40:14;8.65;;;3.50;;
3677;SDS011;1855;50.934;6.958;2023-03-31T02:42:45;10.82;;;3.67;;
3677;SDS011;1855;50.934;6.958;2023-03-31T02:48:02;9.10;;;3.92;;
3677;SDS011;1855;50.934;6.958;2023-03-31T02:50:33;7.90;;;3.47;;
3677;SDS011;1855;50.934;6.958;2023-03-31T02:53:09;7.78;;;3.60;;
3677;SDS011;1855;50.934;6.958;2023-03-31T02:55:54;9.05;;;3.20;;
3677;SDS011;1855;50.934;6.958;2023-03-31T02:58:33;5.97;;;2.70;;
3677;SDS011;1855;50.934;6.958;2023-03-31T03:01:18;9.93;;;3.60;;
3677;SDS011;1855;50.934;6.958;2023-03-31T03:04:02;7.60;;;3.20;;
3677;SDS011;1855;50.934;6.958;2023-03-31T03:06:43;6.30;;;2.97;;
3677;SDS011;1855;50.934;6.958;2023-03-31T03:09:26;7.45;;;2.65;;
3677;SDS011;1855;50.934;6.958;2023-03-31T03:12:06;7.57;;;2.80;;
3677;SDS011;1855;50.934;6.958;2023-03-31T03:14:39;6.97;;;2.60;;
3677;SDS011;1855;50.934;6.958;2023-03-31T03:17:13;6.45;;;2.42;;
3677;SDS011;1855;50.934;6.958;2023-03-31T03:19:43;5.75;;;2.35;;
3677;SDS011;1855;50.934;6.958;2023-03-31T03:22:17;6.60;;;2.30;;
3677;SDS011;1855;50.934;6.958;2023-03-31T03:24:44;7.45;;;3.08;;
3677;SDS011;1855;50.934;6.958;2023-03-31T03:27:12;6.60;;;2.58;;
3677;SDS011;1855;50.934;6.958;2023-03-31T03:29:39;6.65;;;2.78;;
3677;SDS011;1855;50.934;6.958;2023-03-31T03:32:07;5.47;;;2.00;;
3677;SDS011;1855;50.934;6.958;2023-03-31T03:34:34;6.07;;;2.33;;
3677;SDS011;1855;50.934;6.958;2023-03-31T03:37:01;5.93;;;2.17;;
3677;SDS011;1855;50.934;6.958;2023-03-31T03:39:28;4.65;;;1.80;;
3677;SDS011;1855;50.934;6.958;2023-03-31T03:41:54;5.07;;;2.20;;
3677;SDS011;1855;50.934;6.958;2023-03-31T03:44:22;6.90;;;2.05;;
3677;SDS011;1855;50.934;6.958;2023-03-31T03:46:49;4.00;;;2.08;;
3677;SDS011;1855;50.934;6.958;2023-03-31T03:49:16;4.78;;;2.10;;
3677;SDS011;1855;50.934;6.958;2023-03-31T03:51:43;4.38;;;2.00;;
3677;SDS011;1855;50.934;6.958;2023-03-31T03:54:10;5.13;;;2.20;;
3677;SDS011;1855;50.934;6.958;2023-03-31T03:56:36;5.55;;;2.08;;
3677;SDS011;1855;50.934;6.958;2023-03-31T03:59:03;3.95;;;1.77;;
3677;SDS011;1855;50.934;6.958;2023-03-31T04:01:31;4.13;;;1.80;;
3677;SDS011;1855;50.934;6.958;2023-03-31T04:03:58;3.67;;;1.60;;
3677;SDS011;1855;50.934;6.958;2023-03-31T04:06:25;4.13;;;1.85;;
3677;SDS011;1855;50.934;6.958;2023-03-31T04:08:52;4.70;;;1.70;;
3677;SDS011;1855;50.934;6.958;2023-03-31T04:11:19;4.07;;;1.88;;
3677;SDS011;1855;50.934;6.958;2023-03-31T04:13:45;4.13;;;1.90;;
3677;SDS011;1855;50.934;6.958;2023-03-31T04:16:13;2.88;;;1.50;;
3677;SDS011;1855;50.934;6.958;2023-03-31T04:18:42;3.90;;;1.90;;
3677;SDS011;1855;50.934;6.958;2023-03-31T04:21:13;5.35;;;2.25;;
3677;SDS011;1855;50.934;6.958;2023-03-31T04:23:47;5.20;;;2.17;;
3677;SDS011;1855;50.934;6.958;2023-03-31T04:26:15;4.68;;;2.00;;
3677;SDS011;1855;50.934;6.958;2023-03-31T04:28:50;5.15;;;2.10;;
3677;SDS011;1855;50.934;6.958;2023-03-31T04:31:17;5.05;;;2.10;;
3677;SDS011;1855;50.934;6.958;2023-03-31T04:33:50;7.32;;;2.22;;
3677;SDS011;1855;50.934;6.958;2023-03-31T04:36:17;5.32;;;1.98;;
3677;SDS011;1855;50.934;6.958;2023-03-31T04:38:45;5.50;;;2.30;;
3677;SDS011;1855;50.934;6.958;2023-03-31T04:41:14;3.70;;;1.80;;
3677;SDS011;1855;50.934;6.958;2023-03-31T04:43:41;5.40;;;2.30;;
3677;SDS011;1855;50.934;6.958;2023-03-31T04:46:08;3.67;;;1.90;;
3677;SDS011;1855;50.934;6.958;2023-03-31T04:48:35;5.30;;;2.00;;
3677;SDS011;1855;50.934;6.958;2023-03-31T04:51:04;4.60;;;2.03;;
3677;SDS011;1855;50.934;6.958;2023-03-31T04:53:31;5.55;;;2.20;;
3677;SDS011;1855;50.934;6.958;2023-03-31T04:55:57;3.30;;;1.60;;
3677;SDS011;1855;50.934;6.958;2023-03-31T04:58:24;4.40;;;2.10;;
3677;SDS011;1855;50.934;6.958;2023-03-31T05:00:51;4.85;;;2.25;;
3677;SDS011;1855;50.934;6.958;2023-03-31T05:03:18;5.20;;;1.80;;
3677;SDS011;1855;50.934;6.958;2023-03-31T05:05:45;3.05;;;1.85;;
3677;SDS011;1855;50.934;6.958;2023-03-31T05:08:13;3.63;;;1.63;;
3677;SDS011;1855;50.934;6.958;2023-03-31T05:10:40;3.58;;;2.17;;
3677;SDS011;1855;50.934;6.958;2023-03-31T05:13:07;4.47;;;1.63;;
3677;SDS011;1855;50.934;6.958;2023-03-31T05:15:36;2.83;;;1.70;;
3677;SDS011;1855;50.934;6.958;2023-03-31T05:18:03;4.82;;;1.95;;
3677;SDS011;1855;50.934;6.958;2023-03-31T05:20:30;5.00;;;1.60;;
3677;SDS011;1855;50.934;6.958;2023-03-31T05:22:57;2.83;;;1.67;;
3677;SDS011;1855;50.934;6.958;2023-03-31T05:25:26;3.55;;;1.40;;
3677;SDS011;1855;50.934;6.958;2023-03-31T05:27:57;5.32;;;1.50;;
3677;SDS011;1855;50.934;6.958;2023-03-31T05:30:24;3.10;;;1.50;;
3677;SDS011;1855;50.934;6.958;2023-03-31T05:32:51;2.88;;;1.20;;
3677;SDS011;1855;50.934;6.958;2023-03-31T05:35:18;3.22;;;1.42;;
3677;SDS011;1855;50.934;6.958;2023-03-31T05:37:45;3.40;;;1.40;;
3677;SDS011;1855;50.934;6.958;2023-03-31T05:40:12;3.10;;;1.50;;
3677;SDS011;1855;50.934;6.958;2023-03-31T05:42:40;4.13;;;1.50;;
3677;SDS011;1855;50.934;6.958;2023-03-31T05:45:07;2.17;;;1.20;;
3677;SDS011;1855;50.934;6.958;2023-03-31T05:47:34;2.30;;;1.10;;
3677;SDS011;1855;50.934;6.958;2023-03-31T05:50:01;3.00;;;1.20;;
3677;SDS011;1855;50.934;6.958;2023-03-31T05:52:31;2.75;;;1.25;;
3677;SDS011;1855;50.934;6.958;2023-03-31T05:54:58;3.27;;;1.00;;
3677;SDS011;1855;50.934;6.958;2023-03-31T05:57:25;2.40;;;1.27;;
3677;SDS011;1855;50.934;6.958;2023-03-31T05:59:53;3.40;;;1.50;;
3677;SDS011;1855;50.934;6.958;2023-03-31T06:02:19;2.78;;;1.15;;
3677;SDS011;1855;50.934;6.958;2023-03-31T06:04:46;2.22;;;1.15;;
3677;SDS011;1855;50.934;6.958;2023-03-31T06:07:14;1.65;;;1.00;;
3677;SDS011;1855;50.934;6.958;2023-03-31T06:09:41;2.08;;;0.95;;
3677;SDS011;1855;50.934;6.958;2023-03-31T06:12:08;2.00;;;1.23;;
3677;SDS011;1855;50.934;6.958;2023-03-31T06:14:35;1.90;;;1.00;;
3677;SDS011;1855;50.934;6.958;2023-03-31T06:17:03;2.45;;;0.98;;
3677;SDS011;1855;50.934;6.958;2023-03-31T06:19:30;1.10;;;0.70;;
3677;SDS011;1855;50.934;6.958;2023-03-31T06:21:56;1.67;;;0.82;;
3677;SDS011;1855;50.934;6.958;2023-03-31T06:24:23;1.20;;;0.60;;
3677;SDS011;1855;50.934;6.958;2023-03-31T06:26:50;1.50;;;0.65;;
3677;SDS011;1855;50.934;6.958;2023-03-31T06:29:17;2.08;;;0.60;;
3677;SDS011;1855;50.934;6.958;2023-03-31T06:31:44;1.80;;;0.80;;
3677;SDS011;1855;50.934;6.958;2023-03-31T06:34:12;2.10;;;0.80;;
3677;SDS011;1855;50.934;6.958;2023-03-31T06:36:38;1.40;;;0.40;;
3677;SDS011;1855;50.934;6.958;2023-03-31T06:39:05;1.70;;;0.77;;
3677;SDS011;1855;50.934;6.958;2023-03-31T06:41:32;2.42;;;0.60;;
3677;SDS011;1855;50.934;6.958;2023-03-31T06:43:59;1.80;;;0.60;;
3677;SDS011;1855;50.934;6.958;2023-03-31T06:46:26;1.30;;;0.60;;
3677;SDS011;1855;50.934;6.958;2023-03-31T06:48:52;1.50;;;0.65;;
3677;SDS011;1855;50.934;6.958;2023-03-31T06:51:20;3.28;;;0.70;;
3677;SDS011;1855;50.934;6.958;2023-03-31T06:53:47;1.25;;;0.50;;
3677;SDS011;1855;50.934;6.958;2023-03-31T06:56:14;1.50;;;0.60;;
3677;SDS011;1855;50.934;6.958;2023-03-31T06:58:41;1.20;;;0.60;;
3677;SDS011;1855;50.934;6.958;2023-03-31T07:01:07;1.67;;;0.60;;
3677;SDS011;1855;50.934;6.958;2023-03-31T07:03:35;1.75;;;0.60;;
3677;SDS011;1855;50.934;6.958;2023-03-31T07:06:02;0.80;;;0.50;;
3677;SDS011;1855;50.934;6.958;2023-03-31T07:08:31;1.40;;;0.68;;
3677;SDS011;1855;50.934;6.958;2023-03-31T07:10:58;1.08;;;0.50;;
3677;SDS011;1855;50.934;6.958;2023-03-31T07:13:26;1.50;;;0.60;;
3677;SDS011;1855;50.934;6.958;2023-03-31T07:15:53;2.55;;;0.88;;
3677;SDS011;1855;50.934;6.958;2023-03-31T07:18:20;1.30;;;0.50;;
3677;SDS011;1855;50.934;6.958;2023-03-31T07:20:50;1.15;;;0.50;;
3677;SDS011;1855;50.934;6.958;2023-03-31T07:23:17;1.05;;;0.50;;
3677;SDS011;1855;50.934;6.958;2023-03-31T07:25:46;1.10;;;0.68;;
3677;SDS011;1855;50.934;6.958;2023-03-31T07:28:13;1.42;;;0.90;;
3677;SDS011;1855;50.934;6.958;2023-03-31T07:30:41;1.20;;;0.70;;
3677;SDS011;1855;50.934;6.958;2023-03-31T07:33:08;2.30;;;0.60;;
3677;SDS011;1855;50.934;6.958;2023-03-31T07:35:36;1.83;;;0.60;;
3677;SDS011;1855;50.934;6.958;2023-03-31T07:38:03;2.80;;;0.60;;
3677;SDS011;1855;50.934;6.958;2023-03-31T07:40:30;1.70;;;0.70;;
3677;SDS011;1855;50.934;6.958;2023-03-31T07:42:58;1.60;;;0.60;;
3677;SDS011;1855;50.934;6.958;2023-03-31T07:45:26;1.20;;;0.60;;
3677;SDS011;1855;50.934;6.958;2023-03-31T07:47:52;1.30;;;0.50;;
3677;SDS011;1855;50.934;6.958;2023-03-31T07:50:19;1.15;;;0.52;;
3677;SDS011;1855;50.934;6.958;2023-03-31T07:52:47;1.83;;;0.70;;
3677;SDS011;1855;50.934;6.958;2023-03-31T07:55:14;1.42;;;0.60;;
3677;SDS011;1855;50.934;6.958;2023-03-31T07:57:42;1.10;;;0.60;;
3677;SDS011;1855;50.934;6.958;2023-03-31T08:00:12;1.70;;;0.80;;
3677;SDS011;1855;50.934;6.958;2023-03-31T08:02:40;2.35;;;0.73;;
3677;SDS011;1855;50.934;6.958;2023-03-31T08:05:08;1.60;;;0.65;;
3677;SDS011;1855;50.934;6.958;2023-03-31T08:07:35;2.55;;;0.80;;
3677;SDS011;1855;50.934;6.958;2023-03-31T08:10:03;1.58;;;0.80;;
3677;SDS011;1855;50.934;6.958;2023-03-31T08:12:32;2.92;;;0.70;;
3677;SDS011;1855;50.934;6.958;2023-03-31T08:14:59;2.10;;;0.90;;
3677;SDS011;1855;50.934;6.958;2023-03-31T08:17:27;1.92;;;0.85;;
3677;SDS011;1855;50.934;6.958;2023-03-31T08:19:54;1.25;;;0.70;;
3677;SDS011;1855;50.934;6.958;2023-03-31T08:22:21;2.20;;;0.90;;
3677;SDS011;1855;50.934;6.958;2023-03-31T08:24:48;1.80;;;1.00;;
3677;SDS011;1855;50.934;6.958;2023-03-31T08:27:15;1.88;;;0.90;;
3677;SDS011;1855;50.934;6.958;2023-03-31T08:29:41;3.35;;;1.25;;
3677;SDS011;1855;50.934;6.958;2023-03-31T08:32:08;2.30;;;1.20;;
3677;SDS011;1855;50.934;6.958;2023-03-31T08:34:36;2.40;;;1.10;;
3677;SDS011;1855;50.934;6.958;2023-03-31T08:37:06;3.20;;;1.30;;
3677;SDS011;1855;50.934;6.958;2023-03-31T08:39:33;3.22;;;1.20;;
3677;SDS011;1855;50.934;6.958;2023-03-31T08:42:01;2.13;;;1.10;;
3677;SDS011;1855;50.934;6.958;2023-03-31T08:44:33;2.83;;;1.10;;
3677;SDS011;1855;50.934;6.958;2023-03-31T08:47:03;3.90;;;1.38;;
3677;SDS011;1855;50.934;6.958;2023-03-31T08:49:38;2.95;;;1.00;;
3677;SDS011;1855;50.934;6.958;2023-03-31T08:52:10;2.25;;;1.13;;
3677;SDS011;1855;50.934;6.958;2023-03-31T08:54:40;4.57;;;1.70;;
3677;SDS011;1855;50.934;6.958;2023-03-31T08:57:11;5.95;;;1.60;;
3677;SDS011;1855;50.934;6.958;2023-03-31T08:59:41;4.40;;;1.42;;
3677;SDS011;1855;50.934;6.958;2023-03-31T09:02:11;4.90;;;1.60;;
3677;SDS011;1855;50.934;6.958;2023-03-31T09:05:00;3.42;;;1.42;;
3677;SDS011;1855;50.934;6.958;2023-03-31T09:07:40;4.30;;;1.30;;
3677;SDS011;1855;50.934;6.958;2023-03-31T09:10:19;3.90;;;1.77;;
3677;SDS011;1855;50.934;6.958;2023-03-31T09:12:56;3.38;;;1.70;;
3677;SDS011;1855;50.934;6.958;2023-03-31T09:15:31;3.63;;;2.00;;
3677;SDS011;1855;50.934;6.958;2023-03-31T09:18:06;4.78;;;1.80;;
3677;SDS011;1855;50.934;6.958;2023-03-31T09:20:39;6.35;;;2.10;;
3677;SDS011;1855;50.934;6.958;2023-03-31T09:23:13;5.68;;;1.70;;
3677;SDS011;1855;50.934;6.958;2023-03-31T09:25:48;3.40;;;1.80;;
3677;SDS011;1855;50.934;6.958;2023-03-31T09:28:17;4.45;;;1.70;;
3677;SDS011;1855;50.934;6.958;2023-03-31T09:30:45;4.57;;;2.10;;
3677;SDS011;1855;50.934;6.958;2023-03-31T09:33:15;4.60;;;1.70;;
3677;SDS011;1855;50.934;6.958;2023-03-31T09:35:57;3.80;;;1.50;;
3677;SDS011;1855;50.934;6.958;2023-03-31T09:38:24;5.53;;;1.90;;
3677;SDS011;1855;50.934;6.958;2023-03-31T09:40:53;4.95;;;1.60;;
3677;SDS011;1855;50.934;6.958;2023-03-31T09:43:21;5.72;;;2.03;;
3677;SDS011;1855;50.934;6.958;2023-03-31T09:45:49;4.38;;;1.60;;
3677;SDS011;1855;50.934;6.958;2023-03-31T09:48:17;3.95;;;1.88;;
3677;SDS011;1855;50.934;6.958;2023-03-31T09:50:47;3.25;;;1.40;;
3677;SDS011;1855;50.934;6.958;2023-03-31T09:53:19;5.43;;;1.63;;
3677;SDS011;1855;50.934;6.958;2023-03-31T09:55:52;4.90;;;2.10;;
3677;SDS011;1855;50.934;6.958;2023-03-31T09:58:21;5.40;;;1.80;;
3677;SDS011;1855;50.934;6.958;2023-03-31T10:00:55;6.38;;;1.80;;
3677;SDS011;1855;50.934;6.958;2023-03-31T10:03:25;4.53;;;1.80;;
3677;SDS011;1855;50.934;6.958;2023-03-31T10:05:53;7.28;;;1.88;;
3677;SDS011;1855;50.934;6.958;2023-03-31T10:08:25;4.10;;;1.70;;
3677;SDS011;1855;50.934;6.958;2023-03-31T10:10:56;5.55;;;2.00;;
3677;SDS011;1855;50.934;6.958;2023-03-31T10:13:34;4.85;;;1.60;;
3677;SDS011;1855;50.934;6.958;2023-03-31T10:16:05;4.97;;;1.95;;
3677;SDS011;1855;50.934;6.958;2023-03-31T10:18:37;4.90;;;1.85;;
3677;SDS011;1855;50.934;6.958;2023-03-31T10:21:05;4.53;;;1.88;;
3677;SDS011;1855;50.934;6.958;2023-03-31T10:23:41;4.70;;;1.90;;
3677;SDS011;1855;50.934;6.958;2023-03-31T10:26:13;4.45;;;1.63;;
3677;SDS011;1855;50.934;6.958;2023-03-31T10:28:44;3.35;;;1.80;;
3677;SDS011;1855;50.934;6.958;2023-03-31T10:31:14;5.15;;;2.13;;
3677;SDS011;1855;50.934;6.958;2023-03-31T10:33:43;4.72;;;2.00;;
3677;SDS011;1855;50.934;6.958;2023-03-31T10:36:13;5.10;;;1.70;;
3677;SDS011;1855;50.934;6.958;2023-03-31T10:38:45;4.80;;;1.93;;
3677;SDS011;1855;50.934;6.958;2023-03-31T10:41:16;3.50;;;1.60;;
3677;SDS011;1855;50.934;6.958;2023-03-31T10:43:47;4.63;;;2.00;;
3677;SDS011;1855;50.934;6.958;2023-03-31T10:46:15;5.00;;;1.70;;
3677;SDS011;1855;50.934;6.958;2023-03-31T10:48:43;3.58;;;1.80;;
3677;SDS011;1855;50.934;6.958;2023-03-31T10:51:11;3.97;;;1.88;;
3677;SDS011;1855;50.934;6.958;2023-03-31T10:53:42;4.35;;;2.10;;
3677;SDS011;1855;50.934;6.958;2023-03-31T10:56:21;4.50;;;1.90;;
3677;SDS011;1855;50.934;6.958;2023-03-31T10:59:03;3.72;;;1.60;;
3677;SDS011;1855;50.934;6.958;2023-03-31T11:01:42;3.40;;;1.35;;
3677;SDS011;1855;50.934;6.958;2023-03-31T11:04:23;4.32;;;1.90;;
3677;SDS011;1855;50.934;6.958;2023-03-31T11:07:01;2.95;;;1.30;;
3677;SDS011;1855;50.934;6.958;2023-03-31T11:09:42;3.33;;;1.20;;
3677;SDS011;1855;50.934;6.958;2023-03-31T11:12:17;2.88;;;1.20;;
3677;SDS011;1855;50.934;6.958;2023-03-31T11:14:53;4.50;;;1.50;;
3677;SDS011;1855;50.934;6.958;2023-03-31T11:17:32;4.10;;;1.50;;
3677;SDS011;1855;50.934;6.958;2023-03-31T11:20:09;3.90;;;1.40;;
3677;SDS011;1855;50.934;6.958;2023-03-31T11:22:43;3.70;;;1.45;;
3677;SDS011;1855;50.934;6.958;2023-03-31T11:25:20;4.53;;;1.55;;
3677;SDS011;1855;50.934;6.958;2023-03-31T11:27:56;3.38;;;1.30;;
3677;SDS011;1855;50.934;6.958;2023-03-31T11:30:45;2.83;;;1.60;;
3677;SDS011;1855;50.934;6.958;2023-03-31T11:33:21;3.03;;;1.60;;
3677;SDS011;1855;50.934;6.958;2023-03-31T11:36:05;3.10;;;1.30;;
3677;SDS011;1855;50.934;6.958;2023-03-31T11:38:46;3.13;;;1.40;;
3677;SDS011;1855;50.934;6.958;2023-03-31T11:41:28;4.78;;;1.40;;
3677;SDS011;1855;50.934;6.958;2023-03-31T11:44:00;4.28;;;1.70;;
3677;SDS011;1855;50.934;6.958;2023-03-31T11:46:31;2.90;;;1.35;;
3677;SDS011;1855;50.934;6.958;2023-03-31T11:49:05;3.78;;;1.50;;
3677;SDS011;1855;50.934;6.958;2023-03-31T11:51:41;2.88;;;1.60;;
3677;SDS011;1855;50.934;6.958;2023-03-31T11:54:15;6.35;;;1.70;;
3677;SDS011;1855;50.934;6.958;2023-03-31T11:56:45;4.10;;;1.60;;
3677;SDS011;1855;50.934;6.958;2023-03-31T11:59:13;7.70;;;2.00;;
3677;SDS011;1855;50.934;6.958;2023-03-31T12:01:43;4.90;;;2.25;;
3677;SDS011;1855;50.934;6.958;2023-03-31T12:04:18;5.18;;;2.20;;
3677;SDS011;1855;50.934;6.958;2023-03-31T12:06:51;6.75;;;2.33;;
3677;SDS011;1855;50.934;6.958;2023-03-31T12:09:21;5.82;;;2.10;;
3677;SDS011;1855;50.934;6.958;2023-03-31T12:11:56;6.05;;;2.08;;
3677;SDS011;1855;50.934;6.958;2023-03-31T12:14:32;7.05;;;2.33;;
3677;SDS011;1855;50.934;6.958;2023-03-31T12:17:04;5.47;;;2.25;;
3677;SDS011;1855;50.934;6.958;2023-03-31T12:19:38;6.30;;;2.53;;
3677;SDS011;1855;50.934;6.958;2023-03-31T12:22:10;6.85;;;2.20;;
3677;SDS011;1855;50.934;6.958;2023-03-31T12:24:40;6.43;;;2.50;;
3677;SDS011;1855;50.934;6.958;2023-03-31T12:27:10;5.70;;;1.80;;
3677;SDS011;1855;50.934;6.958;2023-03-31T12:29:41;5.45;;;2.10;;
3677;SDS011;1855;50.934;6.958;2023-03-31T12:32:13;5.60;;;2.03;;
3677;SDS011;1855;50.934;6.958;2023-03-31T12:34:43;6.18;;;2.00;;
3677;SDS011;1855;50.934;6.958;2023-03-31T12:37:20;5.07;;;1.60;;
3677;SDS011;1855;50.934;6.958;2023-03-31T12:40:03;5.93;;;2.10;;
3677;SDS011;1855;50.934;6.958;2023-03-31T12:43:05;5.10;;;1.90;;
3677;SDS011;1855;50.934;6.958;2023-03-31T12:45:49;4.47;;;1.60;;
3677;SDS011;1855;50.934;6.958;2023-03-31T12:48:37;2.70;;;1.40;;
3677;SDS011;1855;50.934;6.958;2023-03-31T12:51:18;4.15;;;2.10;;
3677;SDS011;1855;50.934;6.958;2023-03-31T12:53:56;4.90;;;1.80;;
3677;SDS011;1855;50.934;6.958;2023-03-31T12:59:32;4.47;;;1.83;;
3677;SDS011;1855;50.934;6.958;2023-03-31T13:02:16;4.28;;;1.67;;
3677;SDS011;1855;50.934;6.958;2023-03-31T13:04:48;4.03;;;1.40;;
3677;SDS011;1855;50.934;6.958;2023-03-31T13:13:02;3.95;;;1.50;;
3677;SDS011;1855;50.934;6.958;2023-03-31T13:15:32;5.50;;;1.80;;
3677;SDS011;1855;50.934;6.958;2023-03-31T13:17:59;4.07;;;1.67;;
3677;SDS011;1855;50.934;6.958;2023-03-31T13:20:29;4.13;;;1.40;;
3677;SDS011;1855;50.934;6.958;2023-03-31T13:23:02;6.37;;;2.03;;
3677;SDS011;1855;50.934;6.958;2023-03-31T13:25:39;5.55;;;1.90;;
3677;SDS011;1855;50.934;6.958;2023-03-31T13:31:04;4.57;;;1.50;;
3677;SDS011;1855;50.934;6.958;2023-03-31T13:33:33;3.67;;;1.70;;
3677;SDS011;1855;50.934;6.958;2023-03-31T13:36:27;4.28;;;1.50;;
3677;SDS011;1855;50.934;6.958;2023-03-31T13:42:15;3.80;;;1.40;;
3677;SDS011;1855;50.934;6.958;2023-03-31T13:45:09;4.50;;;1.65;;
3677;SDS011;1855;50.934;6.958;2023-03-31T13:48:04;5.35;;;2.20;;
3677;SDS011;1855;50.934;6.958;2023-03-31T13:50:45;4.45;;;1.77;;
3677;SDS011;1855;50.934;6.958;2023-03-31T13:53:36;3.78;;;1.50;;
3677;SDS011;1855;50.934;6.958;2023-03-31T13:56:27;3.70;;;1.60;;
3677;SDS011;1855;50.934;6.958;2023-03-31T13:59:11;4.27;;;1.80;;
3677;SDS011;1855;50.934;6.958;2023-03-31T14:01:59;5.32;;;1.70;;
3677;SDS011;1855;50.934;6.958;2023-03-31T14:04:46;4.20;;;1.95;;
3677;SDS011;1855;50.934;6.958;2023-03-31T14:07:33;4.10;;;1.40;;
3677;SDS011;1855;50.934;6.958;2023-03-31T14:10:08;3.65;;;1.67;;
3677;SDS011;1855;50.934;6.958;2023-03-31T14:12:49;4.63;;;1.70;;
3677;SDS011;1855;50.934;6.958;2023-03-31T14:15:17;3.58;;;1.40;;
3677;SDS011;1855;50.934;6.958;2023-03-31T14:17:45;2.67;;;1.00;;
3677;SDS011;1855;50.934;6.958;2023-03-31T14:20:26;2.30;;;0.90;;
3677;SDS011;1855;50.934;6.958;2023-03-31T14:23:01;2.55;;;1.00;;
3677;SDS011;1855;50.934;6.958;2023-03-31T14:25:42;3.08;;;1.17;;
3677;SDS011;1855;50.934;6.958;2023-03-31T14:28:26;2.40;;;1.00;;
3677;SDS011;1855;50.934;6.958;2023-03-31T14:31:10;2.03;;;0.85;;
3677;SDS011;1855;50.934;6.958;2023-03-31T14:33:46;3.47;;;1.20;;
3677;SDS011;1855;50.934;6.958;2023-03-31T14:36:30;3.47;;;1.10;;
3677;SDS011;1855;50.934;6.958;2023-03-31T14:39:03;3.25;;;1.00;;
3677;SDS011;1855;50.934;6.958;2023-03-31T14:41:34;3.10;;;1.10;;
3677;SDS011;1855;50.934;6.958;2023-03-31T14:44:03;2.42;;;0.85;;
3677;SDS011;1855;50.934;6.958;2023-03-31T14:46:31;3.03;;;1.10;;
3677;SDS011;1855;50.934;6.958;2023-03-31T14:49:05;2.47;;;1.00;;
3677;SDS011;1855;50.934;6.958;2023-03-31T14:51:42;2.10;;;1.00;;
3677;SDS011;1855;50.934;6.958;2023-03-31T14:54:13;2.30;;;1.08;;
3677;SDS011;1855;50.934;6.958;2023-03-31T14:56:41;2.30;;;0.80;;
3677;SDS011;1855;50.934;6.958;2023-03-31T14:59:09;2.15;;;1.10;;
3677;SDS011;1855;50.934;6.958;2023-03-31T15:01:36;3.58;;;1.20;;
3677;SDS011;1855;50.934;6.958;2023-03-31T15:04:04;2.75;;;1.40;;
3677;SDS011;1855;50.934;6.958;2023-03-31T15:06:34;3.60;;;1.40;;
3677;SDS011;1855;50.934;6.958;2023-03-31T15:09:05;2.92;;;1.25;;
3677;SDS011;1855;50.934;6.958;2023-03-31T15:11:32;3.28;;;1.20;;
3677;SDS011;1855;50.934;6.958;2023-03-31T15:13:59;4.25;;;1.42;;
3677;SDS011;1855;50.934;6.958;2023-03-31T15:16:31;2.47;;;1.00;;
3677;SDS011;1855;50.934;6.958;2023-03-31T15:19:04;2.25;;;1.00;;
3677;SDS011;1855;50.934;6.958;2023-03-31T15:21:37;4.07;;;1.30;;
3677;SDS011;1855;50.934;6.958;2023-03-31T15:24:05;4.47;;;1.40;;
3677;SDS011;1855;50.934;6.958;2023-03-31T15:26:33;2.83;;;1.40;;
3677;SDS011;1855;50.934;6.958;2023-03-31T15:29:03;2.80;;;1.10;;
3677;SDS011;1855;50.934;6.958;2023-03-31T15:31:33;3.97;;;1.60;;
3677;SDS011;1855;50.934;6.958;2023-03-31T15:34:10;3.08;;;1.20;;
3677;SDS011;1855;50.934;6.958;2023-03-31T15:36:39;3.65;;;1.10;;
3677;SDS011;1855;50.934;6.958;2023-03-31T15:39:07;4.15;;;1.42;;
3677;SDS011;1855;50.934;6.958;2023-03-31T15:41:36;3.80;;;1.40;;
3677;SDS011;1855;50.934;6.958;2023-03-31T15:44:03;4.00;;;1.50;;
3677;SDS011;1855;50.934;6.958;2023-03-31T15:46:47;3.67;;;1.23;;
3677;SDS011;1855;50.934;6.958;2023-03-31T15:49:21;3.42;;;1.40;;
3677;SDS011;1855;50.934;6.958;2023-03-31T15:51:50;3.63;;;1.42;;
3677;SDS011;1855;50.934;6.958;2023-03-31T15:54:32;4.13;;;1.30;;
3677;SDS011;1855;50.934;6.958;2023-03-31T15:57:01;4.70;;;1.40;;
3677;SDS011;1855;50.934;6.958;2023-03-31T15:59:29;4.15;;;1.30;;
3677;SDS011;1855;50.934;6.958;2023-03-31T16:01:57;3.53;;;1.30;;
3677;SDS011;1855;50.934;6.958;2023-03-31T16:04:28;2.73;;;1.50;;
3677;SDS011;1855;50.934;6.958;2023-03-31T16:06:56;3.28;;;1.20;;
3677;SDS011;1855;50.934;6.958;2023-03-31T16:09:38;4.75;;;1.52;;
3677;SDS011;1855;50.934;6.958;2023-03-31T16:12:12;2.42;;;1.00;;